sensor_id;sensor_type;location;lat;lon;timestamp;temperature;humidity
63537;DHT22;49686;51.880;5.632;2023-04-24T00:01:52;7.20;99.90
63537;DHT22;49686;51.880;5.632;2023-04-24T00:04:19;7.20;99.90
63537;DHT22;49686;51.880;5.632;2023-04-24T00:06:46;7.10;99.90
63537;DHT22;49686;51.880;5.632;2023-04-24T00:09:14;7.10;99.90
63537;DHT22;49686;51.880;5.632;2023-04-24T00:11:41;7.10;99.90
63537;DHT22;49686;51.880;5.632;2023-04-24T00:14:10;7.00;99.90
63537;DHT22;49686;51.880;5.632;2023-04-24T00:16:37;6.90;99.90
63537;DHT22;49686;51.880;5.632;2023-04-24T00:19:04;6.90;99.90
63537;DHT22;49686;51.880;5.632;2023-04-24T00:21:31;6.90;99.90
63537;DHT22;49686;51.880;5.632;2023-04-24T00:23:58;6.90;99.90
63537;DHT22;49686;51.880;5.632;2023-04-24T00:26:26;7.00;99.90
63537;DHT22;49686;51.880;5.632;2023-04-24T00:28:53;7.00;99.90
63537;DHT22;49686;51.880;5.632;2023-04-24T00:31:20;7.00;99.90
63537;DHT22;49686;51.880;5.632;2023-04-24T00:33:46;7.00;99.90
63537;DHT22;49686;51.880;5.632;2023-04-24T00:36:13;7.00;99.90
63537;DHT22;49686;51.880;5.632;2023-04-24T00:38:40;7.00;99.90
63537;DHT22;49686;51.880;5.632;2023-04-24T00:41:07;6.90;99.90
63537;DHT22;49686;51.880;5.632;2023-04-24T00:43:35;7.00;99.90
63537;DHT22;49686;51.880;5.632;2023-04-24T00:46:02;7.00;99.90
63537;DHT22;49686;51.880;5.632;2023-04-24T00:48:29;7.00;99.90
63537;DHT22;49686;51.880;5.632;2023-04-24T00:50:57;7.00;99.90
63537;DHT22;49686;51.880;5.632;2023-04-24T00:53:23;7.10;99.90
63537;DHT22;49686;51.880;5.632;2023-04-24T00:55:52;7.10;99.90
63537;DHT22;49686;51.880;5.632;2023-04-24T00:58:19;7.10;99.90
63537;DHT22;49686;51.880;5.632;2023-04-24T01:00:48;7.10;99.90
63537;DHT22;49686;51.880;5.632;2023-04-24T01:03:17;7.10;99.90
63537;DHT22;49686;51.880;5.632;2023-04-24T01:05:44;7.20;99.90
63537;DHT22;49686;51.880;5.632;2023-04-24T01:08:13;7.20;99.90
63537;DHT22;49686;51.880;5.632;2023-04-24T01:10:40;7.20;99.90
63537;DHT22;49686;51.880;5.632;2023-04-24T01:13:08;7.30;99.90
63537;DHT22;49686;51.880;5.632;2023-04-24T01:15:35;7.30;99.90
63537;DHT22;49686;51.880;5.632;2023-04-24T01:18:04;7.30;99.90
63537;DHT22;49686;51.880;5.632;2023-04-24T01:20:31;7.30;99.90
63537;DHT22;49686;51.880;5.632;2023-04-24T01:22:59;7.30;99.90
63537;DHT22;49686;51.880;5.632;2023-04-24T01:25:27;7.30;99.90
63537;DHT22;49686;51.880;5.632;2023-04-24T01:27:54;7.30;99.90
63537;DHT22;49686;51.880;5.632;2023-04-24T01:30:21;7.30;99.90
63537;DHT22;49686;51.880;5.632;2023-04-24T01:32:48;7.30;99.90
63537;DHT22;49686;51.880;5.632;2023-04-24T01:35:15;7.30;99.90
63537;DHT22;49686;51.880;5.632;2023-04-24T01:37:42;7.30;99.90
63537;DHT22;49686;51.880;5.632;2023-04-24T01:40:10;7.20;99.90
63537;DHT22;49686;51.880;5.632;2023-04-24T01:42:37;7.30;99.90
63537;DHT22;49686;51.880;5.632;2023-04-24T01:45:06;7.30;99.90
63537;DHT22;49686;51.880;5.632;2023-04-24T01:47:33;7.30;99.90
63537;DHT22;49686;51.880;5.632;2023-04-24T01:50:00;7.30;99.90
63537;DHT22;49686;51.880;5.632;2023-04-24T01:52:27;7.30;99.90
63537;DHT22;49686;51.880;5.632;2023-04-24T01:54:53;7.40;99.90
63537;DHT22;49686;51.880;5.632;2023-04-24T01:57:22;7.30;99.90
63537;DHT22;49686;51.880;5.632;2023-04-24T01:59:49;7.40;99.90
63537;DHT22;49686;51.880;5.632;2023-04-24T02:02:17;7.40;99.90
63537;DHT22;49686;51.880;5.632;2023-04-24T02:04:44;7.40;99.90
63537;DHT22;49686;51.880;5.632;2023-04-24T02:07:10;7.40;99.90
63537;DHT22;49686;51.880;5.632;2023-04-24T02:09:37;7.30;99.90
63537;DHT22;49686;51.880;5.632;2023-04-24T02:12:04;7.30;99.90
63537;DHT22;49686;51.880;5.632;2023-04-24T02:14:32;7.30;99.90
63537;DHT22;49686;51.880;5.632;2023-04-24T02:16:59;7.30;99.90
63537;DHT22;49686;51.880;5.632;2023-04-24T02:19:26;7.30;99.90
63537;DHT22;49686;51.880;5.632;2023-04-24T02:21:53;7.30;99.90
63537;DHT22;49686;51.880;5.632;2023-04-24T02:24:20;7.30;99.90
63537;DHT22;49686;51.880;5.632;2023-04-24T02:26:46;7.30;99.90
63537;DHT22;49686;51.880;5.632;2023-04-24T02:29:13;7.20;99.90
63537;DHT22;49686;51.880;5.632;2023-04-24T02:31:41;7.20;99.90
63537;DHT22;49686;51.880;5.632;2023-04-24T02:34:08;7.20;99.90
63537;DHT22;49686;51.880;5.632;2023-04-24T02:36:35;7.20;99.90
63537;DHT22;49686;51.880;5.632;2023-04-24T02:39:02;7.10;99.90
63537;DHT22;49686;51.880;5.632;2023-04-24T02:41:29;7.10;99.90
63537;DHT22;49686;51.880;5.632;2023-04-24T02:43:56;7.10;99.90
63537;DHT22;49686;51.880;5.632;2023-04-24T02:46:22;7.10;99.90
63537;DHT22;49686;51.880;5.632;2023-04-24T02:48:51;7.10;99.90
63537;DHT22;49686;51.880;5.632;2023-04-24T02:51:17;7.10;99.90
63537;DHT22;49686;51.880;5.632;2023-04-24T02:53:44;7.10;99.90
63537;DHT22;49686;51.880;5.632;2023-04-24T02:56:11;7.10;99.90
63537;DHT22;49686;51.880;5.632;2023-04-24T02:58:39;7.10;99.90
63537;DHT22;49686;51.880;5.632;2023-04-24T03:01:06;7.10;99.90
63537;DHT22;49686;51.880;5.632;2023-04-24T03:03:33;7.10;99.90
63537;DHT22;49686;51.880;5.632;2023-04-24T03:06:01;7.10;99.90
63537;DHT22;49686;51.880;5.632;2023-04-24T03:08:30;7.00;99.90
63537;DHT22;49686;51.880;5.632;2023-04-24T03:11:00;7.00;99.90
63537;DHT22;49686;51.880;5.632;2023-04-24T03:13:27;6.90;99.90
63537;DHT22;49686;51.880;5.632;2023-04-24T03:15:55;6.90;99.90
63537;DHT22;49686;51.880;5.632;2023-04-24T03:18:22;6.90;99.90
63537;DHT22;49686;51.880;5.632;2023-04-24T03:20:49;6.90;99.90
63537;DHT22;49686;51.880;5.632;2023-04-24T03:23:17;6.90;99.90
63537;DHT22;49686;51.880;5.632;2023-04-24T03:25:44;6.80;99.90
63537;DHT22;49686;51.880;5.632;2023-04-24T03:28:11;6.80;99.90
63537;DHT22;49686;51.880;5.632;2023-04-24T03:30:38;6.80;99.90
63537;DHT22;49686;51.880;5.632;2023-04-24T03:33:04;6.80;99.90
63537;DHT22;49686;51.880;5.632;2023-04-24T03:35:31;6.70;99.90
63537;DHT22;49686;51.880;5.632;2023-04-24T03:37:58;6.70;99.90
63537;DHT22;49686;51.880;5.632;2023-04-24T03:40:26;6.70;99.90
63537;DHT22;49686;51.880;5.632;2023-04-24T03:42:53;6.70;99.90
63537;DHT22;49686;51.880;5.632;2023-04-24T03:45:20;6.70;99.90
63537;DHT22;49686;51.880;5.632;2023-04-24T03:47:46;6.70;99.90
63537;DHT22;49686;51.880;5.632;2023-04-24T03:50:13;6.70;99.90
63537;DHT22;49686;51.880;5.632;2023-04-24T03:52:40;6.70;99.90
63537;DHT22;49686;51.880;5.632;2023-04-24T03:55:07;6.70;99.90
63537;DHT22;49686;51.880;5.632;2023-04-24T03:57:36;6.60;99.90
63537;DHT22;49686;51.880;5.632;2023-04-24T04:00:03;6.60;99.90
63537;DHT22;49686;51.880;5.632;2023-04-24T04:02:30;6.60;99.90
63537;DHT22;49686;51.880;5.632;2023-04-24T04:04:57;6.60;99.90
63537;DHT22;49686;51.880;5.632;2023-04-24T04:07:24;6.60;99.90
63537;DHT22;49686;51.880;5.632;2023-04-24T04:09:51;6.60;99.90
63537;DHT22;49686;51.880;5.632;2023-04-24T04:12:18;6.60;99.90
63537;DHT22;49686;51.880;5.632;2023-04-24T04:14:46;6.60;99.90
63537;DHT22;49686;51.880;5.632;2023-04-24T04:17:13;6.50;99.90
63537;DHT22;49686;51.880;5.632;2023-04-24T04:19:39;6.50;99.90
63537;DHT22;49686;51.880;5.632;2023-04-24T04:22:07;6.50;99.90
63537;DHT22;49686;51.880;5.632;2023-04-24T04:24:33;6.50;99.90
63537;DHT22;49686;51.880;5.632;2023-04-24T04:27:00;6.50;99.90
63537;DHT22;49686;51.880;5.632;2023-04-24T04:29:27;6.40;99.90
63537;DHT22;49686;51.880;5.632;2023-04-24T04:31:55;6.40;99.90
63537;DHT22;49686;51.880;5.632;2023-04-24T04:34:22;6.40;99.90
63537;DHT22;49686;51.880;5.632;2023-04-24T04:36:49;6.40;99.90
63537;DHT22;49686;51.880;5.632;2023-04-24T04:39:15;6.40;99.90
63537;DHT22;49686;51.880;5.632;2023-04-24T04:41:45;6.40;99.90
63537;DHT22;49686;51.880;5.632;2023-04-24T04:44:12;6.30;99.90
63537;DHT22;49686;51.880;5.632;2023-04-24T04:46:39;6.30;99.90
63537;DHT22;49686;51.880;5.632;2023-04-24T04:49:07;6.30;99.90
63537;DHT22;49686;51.880;5.632;2023-04-24T04:51:34;6.30;99.90
63537;DHT22;49686;51.880;5.632;2023-04-24T04:54:01;6.30;99.90
63537;DHT22;49686;51.880;5.632;2023-04-24T04:56:30;6.30;99.90
63537;DHT22;49686;51.880;5.632;2023-04-24T04:58:56;6.30;99.90
63537;DHT22;49686;51.880;5.632;2023-04-24T05:01:25;6.30;99.90
63537;DHT22;49686;51.880;5.632;2023-04-24T05:03:52;6.30;99.90
63537;DHT22;49686;51.880;5.632;2023-04-24T05:06:22;6.30;99.90
63537;DHT22;49686;51.880;5.632;2023-04-24T05:08:50;6.40;99.90
63537;DHT22;49686;51.880;5.632;2023-04-24T05:11:17;6.30;99.90
63537;DHT22;49686;51.880;5.632;2023-04-24T05:13:43;6.40;99.90
63537;DHT22;49686;51.880;5.632;2023-04-24T05:16:10;6.40;99.90
63537;DHT22;49686;51.880;5.632;2023-04-24T05:18:37;6.40;99.90
63537;DHT22;49686;51.880;5.632;2023-04-24T05:21:04;6.50;99.90
63537;DHT22;49686;51.880;5.632;2023-04-24T05:23:32;6.40;99.90
63537;DHT22;49686;51.880;5.632;2023-04-24T05:25:59;6.40;99.90
63537;DHT22;49686;51.880;5.632;2023-04-24T05:28:26;6.50;99.90
63537;DHT22;49686;51.880;5.632;2023-04-24T05:30:53;6.50;99.90
63537;DHT22;49686;51.880;5.632;2023-04-24T05:33:19;6.50;99.90
63537;DHT22;49686;51.880;5.632;2023-04-24T05:35:46;6.50;99.90
63537;DHT22;49686;51.880;5.632;2023-04-24T05:38:13;6.40;99.90
63537;DHT22;49686;51.880;5.632;2023-04-24T05:40:42;6.40;99.90
63537;DHT22;49686;51.880;5.632;2023-04-24T05:43:09;6.40;99.90
63537;DHT22;49686;51.880;5.632;2023-04-24T05:45:36;6.40;99.90
63537;DHT22;49686;51.880;5.632;2023-04-24T05:48:03;6.40;99.90
63537;DHT22;49686;51.880;5.632;2023-04-24T05:50:32;6.40;99.90
63537;DHT22;49686;51.880;5.632;2023-04-24T05:53:02;6.40;99.90
63537;DHT22;49686;51.880;5.632;2023-04-24T05:55:31;6.40;99.90
63537;DHT22;49686;51.880;5.632;2023-04-24T05:57:59;6.40;99.90
63537;DHT22;49686;51.880;5.632;2023-04-24T06:00:26;6.40;99.90
63537;DHT22;49686;51.880;5.632;2023-04-24T06:02:53;6.40;99.90
63537;DHT22;49686;51.880;5.632;2023-04-24T06:05:23;6.40;99.90
63537;DHT22;49686;51.880;5.632;2023-04-24T06:07:50;6.50;99.90
63537;DHT22;49686;51.880;5.632;2023-04-24T06:10:17;6.60;99.90
63537;DHT22;49686;51.880;5.632;2023-04-24T06:12:44;6.60;99.90
63537;DHT22;49686;51.880;5.632;2023-04-24T06:15:12;6.70;99.90
63537;DHT22;49686;51.880;5.632;2023-04-24T06:17:39;6.80;99.90
63537;DHT22;49686;51.880;5.632;2023-04-24T06:20:09;6.80;99.90
63537;DHT22;49686;51.880;5.632;2023-04-24T06:22:35;6.90;99.90
63537;DHT22;49686;51.880;5.632;2023-04-24T06:25:03;6.90;99.90
63537;DHT22;49686;51.880;5.632;2023-04-24T06:27:30;6.90;99.90
63537;DHT22;49686;51.880;5.632;2023-04-24T06:29:56;6.90;99.90
63537;DHT22;49686;51.880;5.632;2023-04-24T06:32:24;6.80;99.90
63537;DHT22;49686;51.880;5.632;2023-04-24T06:34:52;6.70;99.90
63537;DHT22;49686;51.880;5.632;2023-04-24T06:37:19;6.70;99.90
63537;DHT22;49686;51.880;5.632;2023-04-24T06:39:46;6.60;99.90
63537;DHT22;49686;51.880;5.632;2023-04-24T06:42:13;6.60;99.90
63537;DHT22;49686;51.880;5.632;2023-04-24T06:44:39;6.50;99.90
63537;DHT22;49686;51.880;5.632;2023-04-24T06:47:06;6.50;99.90
63537;DHT22;49686;51.880;5.632;2023-04-24T06:49:35;6.50;99.90
63537;DHT22;49686;51.880;5.632;2023-04-24T06:52:01;6.50;99.90
63537;DHT22;49686;51.880;5.632;2023-04-24T06:54:28;6.40;99.90
63537;DHT22;49686;51.880;5.632;2023-04-24T06:56:55;6.30;99.90
63537;DHT22;49686;51.880;5.632;2023-04-24T06:59:23;6.30;99.90
63537;DHT22;49686;51.880;5.632;2023-04-24T07:01:49;6.30;99.90
63537;DHT22;49686;51.880;5.632;2023-04-24T07:04:20;6.30;99.90
63537;DHT22;49686;51.880;5.632;2023-04-24T07:06:48;6.30;99.90
63537;DHT22;49686;51.880;5.632;2023-04-24T07:09:15;6.30;99.90
63537;DHT22;49686;51.880;5.632;2023-04-24T07:11:42;6.30;99.90
63537;DHT22;49686;51.880;5.632;2023-04-24T07:14:09;6.20;99.90
63537;DHT22;49686;51.880;5.632;2023-04-24T07:16:36;6.20;99.90
63537;DHT22;49686;51.880;5.632;2023-04-24T07:19:03;6.30;99.90
63537;DHT22;49686;51.880;5.632;2023-04-24T07:21:29;6.30;99.90
63537;DHT22;49686;51.880;5.632;2023-04-24T07:23:58;6.40;99.90
63537;DHT22;49686;51.880;5.632;2023-04-24T07:26:25;6.50;99.90
63537;DHT22;49686;51.880;5.632;2023-04-24T07:28:52;6.50;99.90
63537;DHT22;49686;51.880;5.632;2023-04-24T07:31:19;6.40;99.90
63537;DHT22;49686;51.880;5.632;2023-04-24T07:33:45;6.40;99.90
63537;DHT22;49686;51.880;5.632;2023-04-24T07:36:13;6.40;99.90
63537;DHT22;49686;51.880;5.632;2023-04-24T07:38:39;6.30;99.90
63537;DHT22;49686;51.880;5.632;2023-04-24T07:41:07;6.30;99.90
63537;DHT22;49686;51.880;5.632;2023-04-24T07:43:34;6.30;99.90
63537;DHT22;49686;51.880;5.632;2023-04-24T07:46:01;6.20;99.90
63537;DHT22;49686;51.880;5.632;2023-04-24T07:48:28;6.20;99.90
63537;DHT22;49686;51.880;5.632;2023-04-24T07:50:55;6.20;99.90
63537;DHT22;49686;51.880;5.632;2023-04-24T07:53:22;6.20;99.90
63537;DHT22;49686;51.880;5.632;2023-04-24T07:55:49;6.20;99.90
63537;DHT22;49686;51.880;5.632;2023-04-24T07:58:17;6.20;99.90
63537;DHT22;49686;51.880;5.632;2023-04-24T08:00:44;6.20;99.90
63537;DHT22;49686;51.880;5.632;2023-04-24T08:03:10;6.20;99.90
63537;DHT22;49686;51.880;5.632;2023-04-24T08:05:37;6.10;99.90
63537;DHT22;49686;51.880;5.632;2023-04-24T08:08:06;6.20;99.90
63537;DHT22;49686;51.880;5.632;2023-04-24T08:10:33;6.20;99.90
63537;DHT22;49686;51.880;5.632;2023-04-24T08:13:00;6.10;99.90
63537;DHT22;49686;51.880;5.632;2023-04-24T08:15:28;6.10;99.90
63537;DHT22;49686;51.880;5.632;2023-04-24T08:17:55;6.10;99.90
63537;DHT22;49686;51.880;5.632;2023-04-24T08:20:24;6.10;99.90
63537;DHT22;49686;51.880;5.632;2023-04-24T08:22:51;6.20;99.90
63537;DHT22;49686;51.880;5.632;2023-04-24T08:25:18;6.20;99.90
63537;DHT22;49686;51.880;5.632;2023-04-24T08:27:45;6.20;99.90
63537;DHT22;49686;51.880;5.632;2023-04-24T08:30:12;6.20;99.90
63537;DHT22;49686;51.880;5.632;2023-04-24T08:32:40;6.30;99.90
63537;DHT22;49686;51.880;5.632;2023-04-24T08:35:08;6.30;99.90
63537;DHT22;49686;51.880;5.632;2023-04-24T08:37:35;6.40;99.90
63537;DHT22;49686;51.880;5.632;2023-04-24T08:40:06;6.40;99.90
63537;DHT22;49686;51.880;5.632;2023-04-24T08:42:34;6.40;99.90
63537;DHT22;49686;51.880;5.632;2023-04-24T08:45:04;6.30;99.90
63537;DHT22;49686;51.880;5.632;2023-04-24T08:47:31;6.30;99.90
63537;DHT22;49686;51.880;5.632;2023-04-24T08:50:02;6.30;99.90
63537;DHT22;49686;51.880;5.632;2023-04-24T08:52:29;6.20;99.90
63537;DHT22;49686;51.880;5.632;2023-04-24T08:54:56;6.30;99.90
63537;DHT22;49686;51.880;5.632;2023-04-24T08:57:25;6.40;99.90
63537;DHT22;49686;51.880;5.632;2023-04-24T08:59:52;6.50;99.90
63537;DHT22;49686;51.880;5.632;2023-04-24T09:02:20;6.50;99.90
63537;DHT22;49686;51.880;5.632;2023-04-24T09:04:47;6.60;99.90
63537;DHT22;49686;51.880;5.632;2023-04-24T09:07:18;6.60;99.90
63537;DHT22;49686;51.880;5.632;2023-04-24T09:09:46;6.70;99.90
63537;DHT22;49686;51.880;5.632;2023-04-24T09:12:16;6.70;99.90
63537;DHT22;49686;51.880;5.632;2023-04-24T09:14:44;6.90;99.90
63537;DHT22;49686;51.880;5.632;2023-04-24T09:17:11;7.00;99.90
63537;DHT22;49686;51.880;5.632;2023-04-24T09:19:38;7.10;99.90
63537;DHT22;49686;51.880;5.632;2023-04-24T09:22:08;7.20;99.90
63537;DHT22;49686;51.880;5.632;2023-04-24T09:24:37;7.20;99.90
63537;DHT22;49686;51.880;5.632;2023-04-24T09:27:05;7.30;99.90
63537;DHT22;49686;51.880;5.632;2023-04-24T09:29:32;7.40;99.90
63537;DHT22;49686;51.880;5.632;2023-04-24T09:31:59;7.30;99.90
63537;DHT22;49686;51.880;5.632;2023-04-24T09:34:27;7.20;99.90
63537;DHT22;49686;51.880;5.632;2023-04-24T09:36:54;7.20;99.90
63537;DHT22;49686;51.880;5.632;2023-04-24T09:39:21;7.20;99.90
63537;DHT22;49686;51.880;5.632;2023-04-24T09:41:51;7.30;99.90
63537;DHT22;49686;51.880;5.632;2023-04-24T09:44:19;7.40;99.90
63537;DHT22;49686;51.880;5.632;2023-04-24T09:46:49;7.40;99.90
63537;DHT22;49686;51.880;5.632;2023-04-24T09:49:22;7.30;99.90
63537;DHT22;49686;51.880;5.632;2023-04-24T09:51:49;7.30;99.90
63537;DHT22;49686;51.880;5.632;2023-04-24T09:54:18;7.30;99.90
63537;DHT22;49686;51.880;5.632;2023-04-24T09:56:46;7.40;99.90
63537;DHT22;49686;51.880;5.632;2023-04-24T09:59:16;7.70;99.90
63537;DHT22;49686;51.880;5.632;2023-04-24T10:01:44;7.90;99.90
63537;DHT22;49686;51.880;5.632;2023-04-24T10:04:18;8.40;99.90
63537;DHT22;49686;51.880;5.632;2023-04-24T10:06:45;8.70;99.90
63537;DHT22;49686;51.880;5.632;2023-04-24T10:09:12;8.90;99.90
63537;DHT22;49686;51.880;5.632;2023-04-24T10:11:42;9.30;99.90
63537;DHT22;49686;51.880;5.632;2023-04-24T10:14:10;9.50;99.90
63537;DHT22;49686;51.880;5.632;2023-04-24T10:16:39;9.40;99.90
63537;DHT22;49686;51.880;5.632;2023-04-24T10:19:06;9.00;99.90
63537;DHT22;49686;51.880;5.632;2023-04-24T10:21:34;9.00;99.90
63537;DHT22;49686;51.880;5.632;2023-04-24T10:24:01;8.80;99.90
63537;DHT22;49686;51.880;5.632;2023-04-24T10:26:28;8.60;99.90
63537;DHT22;49686;51.880;5.632;2023-04-24T10:28:57;8.60;99.90
63537;DHT22;49686;51.880;5.632;2023-04-24T10:31:24;8.70;99.90
63537;DHT22;49686;51.880;5.632;2023-04-24T10:33:53;8.70;99.90
63537;DHT22;49686;51.880;5.632;2023-04-24T10:36:22;8.70;99.90
63537;DHT22;49686;51.880;5.632;2023-04-24T10:38:50;8.80;99.90
63537;DHT22;49686;51.880;5.632;2023-04-24T10:41:18;8.70;99.90
63537;DHT22;49686;51.880;5.632;2023-04-24T10:43:45;8.60;99.90
63537;DHT22;49686;51.880;5.632;2023-04-24T10:46:19;8.40;99.90
63537;DHT22;49686;51.880;5.632;2023-04-24T10:48:54;8.20;99.90
63537;DHT22;49686;51.880;5.632;2023-04-24T10:51:22;7.80;99.90
63537;DHT22;49686;51.880;5.632;2023-04-24T10:53:50;7.70;99.90
63537;DHT22;49686;51.880;5.632;2023-04-24T10:56:18;7.80;99.90
63537;DHT22;49686;51.880;5.632;2023-04-24T10:58:50;8.10;99.90
63537;DHT22;49686;51.880;5.632;2023-04-24T11:01:24;8.20;99.90
63537;DHT22;49686;51.880;5.632;2023-04-24T11:03:56;8.30;99.90
63537;DHT22;49686;51.880;5.632;2023-04-24T11:06:30;8.50;99.90
63537;DHT22;49686;51.880;5.632;2023-04-24T11:09:02;8.60;99.90
63537;DHT22;49686;51.880;5.632;2023-04-24T11:11:30;8.50;99.90
63537;DHT22;49686;51.880;5.632;2023-04-24T11:14:07;8.40;99.90
63537;DHT22;49686;51.880;5.632;2023-04-24T11:16:37;8.30;99.90
63537;DHT22;49686;51.880;5.632;2023-04-24T11:19:08;8.20;99.90
63537;DHT22;49686;51.880;5.632;2023-04-24T11:21:42;8.00;99.90
63537;DHT22;49686;51.880;5.632;2023-04-24T11:24:23;7.70;99.90
63537;DHT22;49686;51.880;5.632;2023-04-24T11:26:51;7.60;99.90
63537;DHT22;49686;51.880;5.632;2023-04-24T11:29:20;7.40;99.90
63537;DHT22;49686;51.880;5.632;2023-04-24T11:31:48;7.80;99.90
63537;DHT22;49686;51.880;5.632;2023-04-24T11:34:18;8.20;99.90
63537;DHT22;49686;51.880;5.632;2023-04-24T11:36:47;8.30;99.90
63537;DHT22;49686;51.880;5.632;2023-04-24T11:39:14;8.40;99.90
63537;DHT22;49686;51.880;5.632;2023-04-24T11:41:42;8.70;99.90
63537;DHT22;49686;51.880;5.632;2023-04-24T11:44:09;8.80;99.90
63537;DHT22;49686;51.880;5.632;2023-04-24T11:46:36;8.90;99.90
63537;DHT22;49686;51.880;5.632;2023-04-24T11:49:04;9.20;99.90
63537;DHT22;49686;51.880;5.632;2023-04-24T11:51:32;9.40;99.90
63537;DHT22;49686;51.880;5.632;2023-04-24T11:54:16;9.50;99.90
63537;DHT22;49686;51.880;5.632;2023-04-24T11:56:44;9.70;99.90
63537;DHT22;49686;51.880;5.632;2023-04-24T11:59:12;9.40;99.90
63537;DHT22;49686;51.880;5.632;2023-04-24T12:01:45;9.50;99.90
63537;DHT22;49686;51.880;5.632;2023-04-24T12:04:12;9.60;99.90
63537;DHT22;49686;51.880;5.632;2023-04-24T12:06:58;9.40;99.90
63537;DHT22;49686;51.880;5.632;2023-04-24T12:09:25;9.10;99.90
63537;DHT22;49686;51.880;5.632;2023-04-24T12:11:53;8.50;99.90
63537;DHT22;49686;51.880;5.632;2023-04-24T12:14:20;8.30;99.90
63537;DHT22;49686;51.880;5.632;2023-04-24T12:16:47;8.20;99.90
63537;DHT22;49686;51.880;5.632;2023-04-24T12:19:18;8.10;99.90
63537;DHT22;49686;51.880;5.632;2023-04-24T12:21:59;8.00;99.90
63537;DHT22;49686;51.880;5.632;2023-04-24T12:24:26;7.70;99.90
63537;DHT22;49686;51.880;5.632;2023-04-24T12:26:53;7.60;99.90
63537;DHT22;49686;51.880;5.632;2023-04-24T12:29:20;7.50;99.90
63537;DHT22;49686;51.880;5.632;2023-04-24T12:31:47;7.50;99.90
63537;DHT22;49686;51.880;5.632;2023-04-24T12:34:18;7.60;99.90
63537;DHT22;49686;51.880;5.632;2023-04-24T12:36:46;7.80;99.90
63537;DHT22;49686;51.880;5.632;2023-04-24T12:39:16;7.90;99.90
63537;DHT22;49686;51.880;5.632;2023-04-24T12:41:57;7.90;99.90
63537;DHT22;49686;51.880;5.632;2023-04-24T12:44:30;7.60;99.90
63537;DHT22;49686;51.880;5.632;2023-04-24T12:46:57;7.40;99.90
63537;DHT22;49686;51.880;5.632;2023-04-24T12:49:24;7.30;99.90
63537;DHT22;49686;51.880;5.632;2023-04-24T12:51:53;7.30;99.90
63537;DHT22;49686;51.880;5.632;2023-04-24T12:54:20;7.00;99.90
63537;DHT22;49686;51.880;5.632;2023-04-24T12:56:47;6.90;99.90
63537;DHT22;49686;51.880;5.632;2023-04-24T12:59:14;6.80;99.90
63537;DHT22;49686;51.880;5.632;2023-04-24T13:01:41;6.80;99.90
63537;DHT22;49686;51.880;5.632;2023-04-24T13:04:08;6.80;99.90
63537;DHT22;49686;51.880;5.632;2023-04-24T13:06:35;6.80;99.90
63537;DHT22;49686;51.880;5.632;2023-04-24T13:09:03;7.00;99.90
63537;DHT22;49686;51.880;5.632;2023-04-24T13:11:30;7.40;99.90
63537;DHT22;49686;51.880;5.632;2023-04-24T13:13:56;7.80;99.90
63537;DHT22;49686;51.880;5.632;2023-04-24T13:16:23;8.30;99.90
63537;DHT22;49686;51.880;5.632;2023-04-24T13:18:50;8.60;99.90
63537;DHT22;49686;51.880;5.632;2023-04-24T13:21:17;8.80;99.90
63537;DHT22;49686;51.880;5.632;2023-04-24T13:23:46;8.90;99.90
63537;DHT22;49686;51.880;5.632;2023-04-24T13:26:14;9.20;99.90
63537;DHT22;49686;51.880;5.632;2023-04-24T13:28:41;9.40;99.90
63537;DHT22;49686;51.880;5.632;2023-04-24T13:31:08;9.10;99.90
63537;DHT22;49686;51.880;5.632;2023-04-24T13:33:36;8.80;99.90
63537;DHT22;49686;51.880;5.632;2023-04-24T13:36:03;8.40;99.90
63537;DHT22;49686;51.880;5.632;2023-04-24T13:38:30;8.20;99.90
63537;DHT22;49686;51.880;5.632;2023-04-24T13:40:57;8.00;99.90
63537;DHT22;49686;51.880;5.632;2023-04-24T13:43:25;7.70;99.90
63537;DHT22;49686;51.880;5.632;2023-04-24T13:45:52;7.50;99.90
63537;DHT22;49686;51.880;5.632;2023-04-24T13:48:19;7.30;99.90
63537;DHT22;49686;51.880;5.632;2023-04-24T13:50:45;7.30;99.90
63537;DHT22;49686;51.880;5.632;2023-04-24T13:53:12;7.30;99.90
63537;DHT22;49686;51.880;5.632;2023-04-24T13:55:39;7.40;99.90
63537;DHT22;49686;51.880;5.632;2023-04-24T13:58:06;7.70;99.90
63537;DHT22;49686;51.880;5.632;2023-04-24T14:00:34;8.00;99.90
63537;DHT22;49686;51.880;5.632;2023-04-24T14:03:01;8.30;99.90
63537;DHT22;49686;51.880;5.632;2023-04-24T14:05:28;8.50;99.90
63537;DHT22;49686;51.880;5.632;2023-04-24T14:07:55;8.80;99.90
63537;DHT22;49686;51.880;5.632;2023-04-24T14:10:21;9.00;99.90
63537;DHT22;49686;51.880;5.632;2023-04-24T14:12:48;9.20;99.90
63537;DHT22;49686;51.880;5.632;2023-04-24T14:15:15;9.40;99.90
63537;DHT22;49686;51.880;5.632;2023-04-24T14:17:43;9.40;99.90
63537;DHT22;49686;51.880;5.632;2023-04-24T14:20:13;9.30;99.90
63537;DHT22;49686;51.880;5.632;2023-04-24T14:22:39;9.70;99.90
63537;DHT22;49686;51.880;5.632;2023-04-24T14:25:07;9.60;99.90
63537;DHT22;49686;51.880;5.632;2023-04-24T14:27:34;9.40;99.90
63537;DHT22;49686;51.880;5.632;2023-04-24T14:30:00;9.60;99.90
63537;DHT22;49686;51.880;5.632;2023-04-24T14:32:27;9.40;99.90
63537;DHT22;49686;51.880;5.632;2023-04-24T14:34:56;9.10;99.90
63537;DHT22;49686;51.880;5.632;2023-04-24T14:37:22;9.20;99.90
63537;DHT22;49686;51.880;5.632;2023-04-24T14:39:49;9.40;99.90
63537;DHT22;49686;51.880;5.632;2023-04-24T14:42:36;9.20;99.90
63537;DHT22;49686;51.880;5.632;2023-04-24T14:45:03;9.20;99.90
63537;DHT22;49686;51.880;5.632;2023-04-24T14:47:30;9.30;99.90
63537;DHT22;49686;51.880;5.632;2023-04-24T14:49:58;9.40;99.90
63537;DHT22;49686;51.880;5.632;2023-04-24T14:52:27;9.00;99.90
63537;DHT22;49686;51.880;5.632;2023-04-24T14:54:54;9.00;99.90
63537;DHT22;49686;51.880;5.632;2023-04-24T14:57:21;9.10;99.90
63537;DHT22;49686;51.880;5.632;2023-04-24T14:59:48;9.10;99.90
63537;DHT22;49686;51.880;5.632;2023-04-24T15:02:14;9.00;99.90
63537;DHT22;49686;51.880;5.632;2023-04-24T15:04:45;8.90;99.90
63537;DHT22;49686;51.880;5.632;2023-04-24T15:07:15;8.90;99.90
63537;DHT22;49686;51.880;5.632;2023-04-24T15:09:41;8.80;99.90
63537;DHT22;49686;51.880;5.632;2023-04-24T15:12:08;8.70;99.90
63537;DHT22;49686;51.880;5.632;2023-04-24T15:14:35;8.70;99.90
63537;DHT22;49686;51.880;5.632;2023-04-24T15:17:02;8.70;99.90
63537;DHT22;49686;51.880;5.632;2023-04-24T15:19:29;8.70;99.90
63537;DHT22;49686;51.880;5.632;2023-04-24T15:21:55;8.90;99.90
63537;DHT22;49686;51.880;5.632;2023-04-24T15:24:23;9.10;99.90
63537;DHT22;49686;51.880;5.632;2023-04-24T15:26:50;9.10;99.90
63537;DHT22;49686;51.880;5.632;2023-04-24T15:29:17;8.90;99.90
63537;DHT22;49686;51.880;5.632;2023-04-24T15:31:44;8.90;99.90
63537;DHT22;49686;51.880;5.632;2023-04-24T15:34:11;8.70;99.90
63537;DHT22;49686;51.880;5.632;2023-04-24T15:36:37;8.60;99.90
63537;DHT22;49686;51.880;5.632;2023-04-24T15:39:04;8.30;99.90
63537;DHT22;49686;51.880;5.632;2023-04-24T15:41:36;8.10;99.90
63537;DHT22;49686;51.880;5.632;2023-04-24T15:44:03;8.10;99.90
63537;DHT22;49686;51.880;5.632;2023-04-24T15:46:29;8.20;99.90
63537;DHT22;49686;51.880;5.632;2023-04-24T15:48:56;8.50;99.90